• Join FlightAware (Why Join?)
  • Login
  • US Flag 
02:39AM EST


 

Airport Tracker/Info


-or-


 

Live Flight TrackerFlight Track Log ✈ N589H ✈ 26-Jan-2014 ✈ KPIE - MDSD / SDQ

Flight Track Log - Related Links

Times and Time Zones

All times are in EST time to prevent confusion due to time zone crossing. See the N589H flight status page for this flight to view local times or setup timezone preferences in your user account.

Time Position Orientation Groundspeed Altitude Reporting Facility
EST Latitude Longitude Course Direction KTS MPH feet Rate Location/Type
06:13AM 27.9333 -82.7500 360° North 194 223 1,800  Level Tampa TRACON
06:13AM 27.9333 -82.7500 169° South 197 227 1,800 1,620 Level Tampa TRACON
06:16AM 27.8386 -82.7289 169° South 194 223 5,500 1,740 Climbing Miami Center
06:17AM 27.8033 -82.6708 124° Southeast 196 226 7,400 1,740 Climbing Miami Center
06:18AM 27.7661 -82.6125 126° Southeast 213 245 9,000 1,500 Climbing Miami Center
06:19AM 27.7228 -82.5447 126° Southeast 244 281 10,400 1,380 Climbing Miami Center
06:20AM 27.6797 -82.4747 125° Southeast 261 300 11,800 1,440 Climbing Miami Center
06:21AM 27.6364 -82.4044 125° Southeast 272 313 13,300 1,440 Climbing Miami Center
06:22AM 27.5892 -82.3319 126° Southeast 277 319 14,700 1,440 Climbing Miami Center
06:23AM 27.5397 -82.2594 128° Southeast 283 326 16,200 1,440 Climbing Miami Center
06:24AM 27.4967 -82.1872 124° Southeast 283 326 17,600 1,440 Climbing Miami Center
06:25AM 27.4453 -82.1031 125° Southeast 283 326 19,100 1,440 Climbing Miami Center
06:26AM 27.3958 -82.0283 127° Southeast 295 339 20,500 1,380 Climbing Miami Center
06:27AM 27.3544 -81.9633 126° Southeast 295 339 21,900 1,260 Climbing Miami Center
06:28AM 27.3050 -81.8864 126° Southeast 295 339 23,100 1,200 Climbing Miami Center
06:29AM 27.2494 -81.8022 127° Southeast 300 345 24,300 1,020 Climbing Miami Center
06:30AM 27.1958 -81.7158 125° Southeast 315 362 25,200 900 Climbing Miami Center
06:31AM 27.1442 -81.6389 127° Southeast 331 381 26,100 900 Climbing Miami Center
06:32AM 27.0889 -81.5481 124° Southeast 345 397 27,000 960 Climbing Miami Center
06:33AM 27.0269 -81.4547 127° Southeast 351 404 28,100 960 Climbing Miami Center
06:34AM 26.9714 -81.3664 125° Southeast 351 404 29,000 900 Climbing Miami Center
06:35AM 26.9136 -81.2781 126° Southeast 351 404 29,900 900 Climbing Miami Center
06:36AM 26.8636 -81.1992 125° Southeast 351 404 30,800 540 Climbing Miami Center
06:37AM 26.8078 -81.1133 126° Southeast 351 404 31,000 60 Climbing Miami Center
06:38AM 26.7397 -81.0086 126° Southeast 356 410 31,000  Level Miami Center
06:39AM 26.6758 -80.9133 127° Southeast 374 430 31,000  Level Miami Center
06:40AM 26.6197 -80.8256 126° Southeast 379 436 31,000  Level Miami Center
06:41AM 26.5475 -80.7164 126° Southeast 389 448 31,000  Level Miami Center
06:42AM 26.4831 -80.6189 126° Southeast 395 455 31,000  Level Miami Center
06:43AM 26.4189 -80.5219 126° Southeast 395 455 31,000  Level Miami Center
06:44AM 26.3583 -80.4319 127° Southeast 390 449 31,000  Level Miami Center
06:45AM 26.2878 -80.3233 126° Southeast 390 449 31,000  Level Miami Center
06:46AM 26.2314 -80.2336 125° Southeast 390 449 31,000  Level Miami Center
06:47AM 26.1647 -80.1344 127° Southeast 395 455 31,000  Level Miami Center
06:48AM 26.0942 -80.0283 127° Southeast 395 455 31,000  Level Miami Center
06:49AM 26.0292 -79.9297 126° Southeast 395 455 31,000  Level Miami Center
06:50AM 25.9625 -79.8286 126° Southeast 395 455 31,000  Level Miami Center
06:51AM 25.9058 -79.7278 122° Southeast 390 449 31,000  Level Miami Center
06:52AM 25.8431 -79.6247 124° Southeast 395 455 31,000  Level Miami Center
06:53AM 25.7864 -79.5358 125° Southeast 395 455 31,000  Level Miami Center
06:54AM 25.7172 -79.4236 124° Southeast 395 455 31,000  Level Miami Center
06:55AM 25.6564 -79.3208 123° Southeast 395 455 31,000  Level Miami Center
06:56AM 25.5933 -79.2183 124° Southeast 401 461 31,000  Level Miami Center
06:57AM 25.5322 -79.1181 124° Southeast 401 461 31,000  Level Miami Center
06:58AM 25.4689 -79.0156 124° Southeast 401 461 31,000  Level Miami Center
06:59AM 25.4056 -78.9156 125° Southeast 401 461 31,000  Level Miami Center
07:00AM 25.3442 -78.8133 124° Southeast 401 461 31,000  Level Miami Center
07:01AM 25.2828 -78.7136 124° Southeast 401 461 31,000  Level Miami Center
07:02AM 25.2172 -78.6114 125° Southeast 401 461 31,000  Level Miami Center
07:03AM 25.1558 -78.5097 124° Southeast 401 461 31,000  Level Miami Center
07:04AM 25.0919 -78.4078 125° Southeast 401 461 31,000  Level Miami Center
07:05AM 25.0283 -78.3061 125° Southeast 401 461 31,000  Level Miami Center
07:06AM 24.9667 -78.2022 123° Southeast 406 467 31,000  Level Miami Center
07:07AM 24.9028 -78.1031 125° Southeast 406 467 31,000  Level Miami Center
07:08AM 24.8408 -78.0039 125° Southeast 406 467 31,000  Level Miami Center
07:09AM 24.7767 -77.9003 124° Southeast 406 467 31,000  Level Miami Center
07:10AM 24.7125 -77.7992 125° Southeast 406 467 31,000  Level Miami Center
07:11AM 24.6483 -77.6981 125° Southeast 406 467 31,000  Level Miami Center
07:12AM 24.5842 -77.5969 125° Southeast 406 467 31,000  Level Miami Center
07:13AM 24.5197 -77.4961 125° Southeast 406 467 31,000  Level Miami Center
07:14AM 24.4556 -77.3953 125° Southeast 406 467 31,000  Level Miami Center
07:15AM 24.3931 -77.2947 124° Southeast 406 467 31,000  Level Miami Center
07:16AM 24.3286 -77.1942 125° Southeast 406 467 31,000  Level Miami Center
07:17AM 24.2639 -77.0914 125° Southeast 406 467 31,000  Level Miami Center
07:18AM 24.1992 -76.9933 126° Southeast 401 461 31,000  Level Miami Center
07:19AM 24.1367 -76.8931 124° Southeast 401 461 31,000  Level Miami Center
07:20AM 24.0803 -76.8042 125° Southeast 406 467 31,000  Level Miami Center
07:21AM 24.0153 -76.7042 125° Southeast 406 467 31,000  Level Miami Center
07:22AM 23.9503 -76.6042 125° Southeast 406 467 31,000  Level Miami Center
07:23AM 23.8875 -76.5067 125° Southeast 406 467 31,000  Level Miami Center
07:24AM 23.8244 -76.4092 125° Southeast 406 467 31,000  Level Miami Center
07:25AM 23.7594 -76.3094 125° Southeast 406 467 31,000  Level Miami Center
07:26AM 23.6942 -76.2078 125° Southeast 406 467 31,000  Level Miami Center
07:27AM 23.6311 -76.1106 125° Southeast 406 467 31,000  Level Miami Center
07:28AM 23.5658 -76.0133 126° Southeast 406 467 31,000  Level Miami Center
07:29AM 23.5025 -75.9164 125° Southeast 406 467 31,000  Level Miami Center
07:30AM 23.4328 -75.8014 123° Southeast 406 467 31,000  Level Miami Center
07:31AM 23.3608 -75.7025 128° Southeast 408 470 31,000  Level Miami Center
07:32AM 23.2994 -75.6056 125° Southeast 403 464 31,000  Level Miami Center
07:33AM 23.2339 -75.5069 126° Southeast 403 464 31,000  Level Miami Center
07:34AM 23.1703 -75.4103 126° Southeast 403 464 31,000  Level Miami Center
07:35AM 23.1067 -75.3117 125° Southeast 403 464 31,000  Level Miami Center
07:36AM 23.0408 -75.2153 127° Southeast 403 464 31,000 60 Level Miami Center
07:37AM 22.9750 -75.1192 127° Southeast 403 464 31,200 360 Climbing Miami Center
07:38AM 22.9133 -75.0231 125° Southeast 403 464 31,800 540 Climbing Miami Center
07:39AM 22.8517 -74.9317 126° Southeast 392 451 32,300 540 Climbing Miami Center
07:40AM 22.7897 -74.8400 126° Southeast 381 438 32,900 300 Climbing Miami Center
07:41AM 22.7300 -74.7486 125° Southeast 376 433 33,000  Climbing Miami Center
07:42AM 22.6661 -74.6575 127° Southeast 376 433 33,000  Level Miami Center
07:43AM 22.5997 -74.5597 126° Southeast 386 444 33,000  Level Miami Center
07:44AM 22.5358 -74.4642 126° Southeast 391 450 33,000  Level Miami Center
07:45AM 22.4714 -74.3686 126° Southeast 396 456 33,000  Level Miami Center
07:46AM 22.4050 -74.2689 126° Southeast 401 461 33,000  Level Miami Center
07:47AM 22.3386 -74.1736 127° Southeast 401 461 33,000  Level Miami Center
07:48AM 22.2806 -74.0850 125° Southeast 401 461 33,000  Level Miami Center
07:49AM 22.2164 -73.9900 126° Southeast 406 467 33,000  Level Miami Center
07:50AM 22.1539 -73.8903 124° Southeast 401 461 33,000  Level Miami Center
07:51AM 22.0831 -73.8003 130° Southeast 401 461 33,000  Level Miami Center
07:52AM 22.0139 -73.6875 123° Southeast 401 461 33,000  Level Miami Center
07:53AM 21.9472 -73.5906 127° Southeast 401 461 33,000  Level Miami Center
07:54AM 21.8867 -73.4958 125° Southeast 401 461 33,000  Level Miami Center
07:55AM 21.8156 -73.3994 128° Southeast 406 467 33,000  Level Miami Center
07:56AM 21.7506 -73.3006 125° Southeast 406 467 33,000  Level Miami Center
07:57AM 21.6794 -73.2042 128° Southeast 406 467 33,000  Level Miami Center
07:58AM 21.6167 -73.1056 124° Southeast 406 467 33,000  Level Miami Center
07:59AM 21.5517 -73.0092 126° Southeast 406 467 33,000  Level Miami Center
08:00AM 21.4844 -72.9150 127° Southeast 406 467 33,000  Level Miami Center
08:01AM 21.4172 -72.8192 127° Southeast 401 461 33,000  Level Miami Center
08:02AM 21.3522 -72.7231 126° Southeast 407 468 33,000  Level Miami Center
08:03AM 21.2847 -72.6272 127° Southeast 402 463 33,000  Level Miami Center
08:04AM 21.2175 -72.5314 127° Southeast 402 463 33,000  Level Miami Center
08:05AM 21.1481 -72.4333 127° Southeast 402 463 33,000  Level Miami Center
08:06AM 21.0806 -72.3378 127° Southeast 402 463 33,000  Level Miami Center
08:07AM 21.0150 -72.2422 126° Southeast 402 463 33,000  Level Miami Center
08:08AM 20.9456 -72.1469 128° Southeast 402 463 33,000  Level Miami Center
08:09AM 20.8778 -72.0494 127° Southeast 402 463 33,000  Level Miami Center
08:10AM 20.8100 -71.9542 127° Southeast 402 463 33,000  Level Miami Center
08:11AM 20.7444 -71.8589 126° Southeast 402 463 33,000  Level Miami Center
08:12AM 20.6789 -71.7617 126° Southeast 402 463 33,000  Level Miami Center
08:13AM 20.6108 -71.6667 127° Southeast 402 463 33,000  Level Miami Center
08:14AM 20.5453 -71.5719 126° Southeast 402 463 33,000  Level Miami Center
08:15AM 20.4772 -71.4772 127° Southeast 407 468 33,000  Level Miami Center
08:16AM 20.4075 -71.3847 129° Southeast 402 463 33,000  Level Miami Center
08:17AM 20.3194 -71.3175 144° Southeast 392 451 33,000  Level Miami Center
08:19AM 20.1782 -71.1778 137° Southeast  Level FlightAware Approximate
08:26AM 19.6389 -70.7070 141° Southeast  Level FlightAware Approximate
08:27AM 19.5613 -70.6406 141° Southeast  Level FlightAware Approximate
08:28AM 19.4840 -70.5738 141° Southeast  Level FlightAware Approximate
08:29AM 19.4068 -70.5069 141° Southeast  Level FlightAware Approximate
08:30AM 19.3296 -70.4400 141° Southeast  Level FlightAware Approximate
08:31AM 19.2523 -70.3733 141° Southeast  Level FlightAware Approximate
08:32AM 19.1748 -70.3069 141° Southeast  Level FlightAware Approximate
08:33AM 19.0973 -70.2405 141° Southeast  Level FlightAware Approximate
08:34AM 19.0201 -70.1738 140° Southeast  Level FlightAware Approximate
08:35AM 18.9433 -70.1066 140° Southeast  Level FlightAware Approximate
08:36AM 18.8671 -70.0387 140° Southeast  Level FlightAware Approximate
08:37AM 18.7912 -69.9704 140° Southeast  Level FlightAware Approximate
08:38AM 18.7137 -69.9043 143° Southeast  Level FlightAware Approximate
08:39AM 18.6371 -69.8371 137° Southeast  Level FlightAware Approximate
08:40AM 18.5584 -69.7729 145° Southeast  Level FlightAware Approximate
08:41AM 18.4778 -69.7111 137° Southeast  Level FlightAware Approximate
08:42AM 18.4297 -69.6689 137° Southeast  Level Estimated
08:43AM 18.4297 -69.6689 137° Southeast  Level Estimated
08:44AM 18.4297 -69.6689 137° Southeast  Level Estimated
08:45AM 18.4297 -69.6689 137° Southeast  Level Estimated
08:46AM 18.4297 -69.6689 137° Southeast  Level Estimated
08:47AM 18.4297 -69.6689 137° Southeast  Level Estimated
08:48AM 18.4297 -69.6689 137° Southeast  Level Estimated
08:49AM 18.4297 -69.6689 137° Southeast  Level Estimated
08:50AM 18.4297 -69.6689 137° Southeast  Level Estimated
08:51AM 18.4297 -69.6689 137° Southeast  Level Estimated
08:52AM 18.4297 -69.6689 137° Southeast  Level Estimated
08:53AM 18.4297 -69.6689 137° Southeast  Level Estimated
08:54AM 18.4297 -69.6689 137° Southeast  Level Estimated
08:55AM 18.4297 -69.6689 137° Southeast  Level Estimated
08:56AM 18.4297 -69.6689 137° Southeast  Level Estimated
08:57AM 18.4297 -69.6689 137° Southeast  Level Estimated
08:58AM 18.4297 -69.6689 137° Southeast  Level Estimated
08:59AM 18.4297 -69.6689 137° Southeast  Level Estimated
09:00AM 18.4297 -69.6689 137° Southeast  Level Estimated
09:01AM 18.4297 -69.6689 137° Southeast  Level Estimated
09:02AM 18.4297 -69.6689 137° Southeast  Level Estimated
09:03AM 18.4297 -69.6689 137° Southeast  Level Estimated
09:04AM 18.4297 -69.6689 137° Southeast  Level Estimated